Saturday, May 26, 2018, 8:10 AM EDT
Back to Local

KNUI, Knui Webster Field Annex

Location: Saint Inigoes, MD, United States Lat: 38.15
Local Time: 8:10 AM EDT (12:10 GMT) Lon: -76.417
Time Zone: US/Eastern Elev: 19 ft

Show me the last for .
Show Decoded

2018-05-26 07:53 METAR KNUI 261153Z AUTO 21008KT 8SM CLR 24/21 A2990 RMK AO2 SLP123 T02390206
                 10244 20228 58000 =
2018-05-26 06:53 METAR KNUI 261053Z AUTO 19003KT 7SM CLR 23/21 A2990 RMK AO2 SLP125 T02330211 =
2018-05-26 05:53 METAR KNUI 260953Z AUTO 21006KT 7SM CLR 23/21 A2990 RMK AO2 SLP123 T02280206 =
2018-05-26 04:53 METAR KNUI 260853Z AUTO 22008KT 8SM CLR 23/21 A2990 RMK AO2 SLP123 T02280206
                 55003 =
2018-05-26 03:53 METAR KNUI 260753Z AUTO 22009KT 9SM CLR 23/20 A2989 RMK AO2 SLP122 T02330200 =
2018-05-26 02:53 METAR KNUI 260653Z AUTO 22009KT 9SM CLR 24/20 A2990 RMK AO2 SLP125 T02390200 =
2018-05-26 01:53 METAR KNUI 260553Z AUTO 21008KT 9SM CLR 24/19 A2991 RMK AO2 SLP127 T02390194
                 10256 20233 58008 =
2018-05-26 00:53 METAR KNUI 260453Z AUTO 20007KT 9SM CLR 24/20 A2992 RMK AO2 SLP131 T02390200
                 402890172 =
2018-05-25 23:53 METAR KNUI 260353Z AUTO 19005KT 9SM CLR 24/20 A2992 RMK AO2 SLP132 T02390200 =
2018-05-25 22:53 METAR KNUI 260253Z AUTO 17005KT 9SM CLR 23/20 A2993 RMK AO2 SLP135 T02330200
                 50001 =
2018-05-25 21:53 METAR KNUI 260153Z AUTO 17007KT 10SM CLR 24/20 A2993 RMK AO2 SLP136 T02390200 =
2018-05-25 20:53 METAR KNUI 260053Z AUTO 16006KT 10SM CLR 26/19 A2993 RMK AO2 SLP133 T02560194 =
2018-05-25 19:53 METAR KNUI 252353Z AUTO 15007KT 9SM CLR 26/20 A2993 RMK AO2 SLP134 T02560200
                 10289 20256 56007 =
2018-05-25 18:53 METAR KNUI 252253Z AUTO 19009KT 9SM CLR 28/18 A2993 RMK AO2 SLP134 T02780183 =
2018-05-25 17:53 METAR KNUI 252153Z AUTO 21010KT 9SM CLR 28/19 A2994 RMK AO2 SLP138 T02830189 =
2018-05-25 16:53 METAR KNUI 252053Z AUTO 21010KT 9SM CLR 29/19 A2995 RMK AO2 SLP141 T02890189
                 56022 =
2018-05-25 15:53 METAR KNUI 251953Z AUTO 19008KT 9SM CLR 28/19 A2997 RMK AO2 SLP147 T02830189 =
2018-05-25 14:53 METAR KNUI 251853Z AUTO 19011KT 7SM SCT050 28/19 A2999 RMK AO2 SLP155 T02830189
                 =
2018-05-25 13:53 METAR KNUI 251753Z AUTO 19009KT 7SM FEW049 28/19 A3001 RMK AO2 SLP163 T02780189
                 10283 20217 58023 =
2018-05-25 12:53 METAR KNUI 251653Z AUTO 18009KT 7SM CLR 28/19 A3004 RMK AO2 SLP171 T02780194 =
2018-05-25 11:53 METAR KNUI 251553Z AUTO 21010KT 7SM FEW042 27/19 A3006 RMK AO2 SLP179 T02720189
                 =
2018-05-25 10:53 METAR KNUI 251453Z AUTO 22010KT 6SM HZ CLR 26/20 A3008 RMK AO2 SLP185 T02560200
                 58010 =
2018-05-25 09:53 METAR KNUI 251353Z AUTO 24006KT 7SM CLR 24/19 A3010 RMK AO2 SLP191 T02440194 =
2018-05-25 08:53 METAR KNUI 251253Z AUTO 19007KT 7SM CLR 23/18 A3010 RMK AO2 SLP193 T02280178 =

Support USWX by starting your Amazon purchase here.